Time;durP1;ratioP1;P1;durP2;ratioP2;P2;SDS_P1;SDS_P2;PMS_P1;PMS_P2;Temp;Humidity;BMP_temperature;BMP_pressure;BME280_temperature;BME280_humidity;BME280_pressure;Samples;Min_cycle;Max_cycle;Signal;HPM_P1;HPM_P2
2021/07/06 00:00:32;;;;;;;3.00;1.95;;;19.20;75.40;;;19.44;60.80;97077.09;5004155;28;20378;-42
2021/07/06 00:03:00;;;;;;;2.53;1.92;;;19.30;75.50;;;19.47;60.51;97086.59;5005812;28;20055;-42
2021/07/06 00:05:28;;;;;;;4.18;2.30;;;19.30;75.00;;;19.48;60.58;97085.50;5006832;28;20068;-42
2021/07/06 00:07:56;;;;;;;3.28;1.60;;;19.40;75.00;;;19.50;60.69;97074.50;5006260;28;20062;-43
2021/07/06 00:10:25;;;;;;;2.92;1.98;;;19.40;75.00;;;19.52;60.94;97072.38;5003646;28;20053;-42
2021/07/06 00:12:54;;;;;;;2.25;1.58;;;19.40;75.00;;;19.53;60.69;97068.66;5004588;28;20046;-42
2021/07/06 00:15:24;;;;;;;2.60;1.95;;;19.40;75.00;;;19.54;60.82;97056.78;5002666;28;20042;-42
2021/07/06 00:17:54;;;;;;;3.70;2.10;;;19.30;75.00;;;19.54;60.68;97059.47;5005480;28;20049;-42
2021/07/06 00:20:26;;;;;;;3.30;2.05;;;19.40;75.20;;;19.54;60.79;97059.47;5004939;28;20049;-42
2021/07/06 00:22:56;;;;;;;2.10;1.90;;;19.40;75.20;;;19.54;61.01;97062.16;5004147;28;20340;-42
2021/07/06 00:25:26;;;;;;;2.35;2.15;;;19.40;75.30;;;19.53;61.14;97066.75;5005602;28;20373;-42
2021/07/06 00:27:54;;;;;;;2.80;2.08;;;19.40;75.40;;;19.49;61.19;97068.28;5004691;28;20056;-42
2021/07/06 00:30:24;;;;;;;3.83;2.30;;;19.30;75.70;;;19.45;61.23;97056.31;5006064;28;20052;-42
2021/07/06 00:32:53;;;;;;;2.22;1.70;;;19.30;75.90;;;19.46;61.32;97058.78;5005224;28;20050;-42
2021/07/06 00:35:21;;;;;;;5.05;1.95;;;19.30;75.90;;;19.46;61.01;97050.69;5021296;28;20251;-42
2021/07/06 00:37:49;;;;;;;2.95;1.92;;;19.30;75.90;;;19.46;61.21;97047.13;5006046;28;20056;-42
2021/07/06 00:40:18;;;;;;;3.42;1.88;;;19.30;76.00;;;19.44;61.24;97036.59;5005106;28;20217;-42
2021/07/06 00:42:48;;;;;;;3.70;1.85;;;19.30;76.00;;;19.44;61.18;97031.19;5005525;28;20072;-42
2021/07/06 00:45:17;;;;;;;4.47;2.10;;;19.30;76.00;;;19.45;61.15;97032.81;5004648;28;20255;-42
2021/07/06 00:47:46;;;;;;;2.38;1.92;;;19.30;75.80;;;19.45;61.29;97040.94;5004793;28;20050;-42
2021/07/06 00:50:22;;;;;;;3.65;2.53;;;19.30;75.80;;;19.45;61.15;97040.13;5003898;28;20053;-42
2021/07/06 00:52:51;;;;;;;2.20;1.70;;;19.30;76.20;;;19.43;61.09;97040.34;5005483;28;20060;-42
2021/07/06 00:55:19;;;;;;;3.40;1.75;;;19.20;75.90;;;19.43;61.35;97043.03;5006591;28;20281;-42
2021/07/06 00:57:48;;;;;;;2.80;2.25;;;19.30;76.00;;;19.41;61.17;97028.94;5005737;28;20054;-42
2021/07/06 01:00:21;;;;;;;3.83;2.55;;;19.30;76.00;;;19.42;61.43;97032.47;5004690;28;20475;-42
2021/07/06 01:02:50;;;;;;;3.20;2.25;;;19.30;76.00;;;19.40;61.12;97031.88;5005593;28;20053;-42
2021/07/06 01:05:25;;;;;;;1.88;1.70;;;19.20;75.80;;;19.38;61.47;97021.31;5004119;28;20068;-42
2021/07/06 01:07:55;;;;;;;2.97;1.98;;;19.30;75.70;;;19.35;61.60;97018.25;5005426;28;20054;-42
2021/07/06 01:10:23;;;;;;;2.40;1.70;;;19.30;75.50;;;19.32;61.55;97016.84;5004788;28;20057;-43
2021/07/06 01:12:54;;;;;;;4.07;2.03;;;19.30;75.50;;;19.31;61.51;97019.78;5005606;28;20235;-42
2021/07/06 01:15:28;;;;;;;2.83;1.80;;;19.30;75.50;;;19.28;61.53;97016.47;5004905;28;20190;-42
2021/07/06 01:18:02;;;;;;;4.07;3.05;;;19.20;75.60;;;19.28;61.55;97012.97;5005005;28;20062;-42
2021/07/06 01:20:30;;;;;;;;;;;19.20;75.70;;;19.22;61.52;97017.41;5005287;28;20649;-42
2021/07/06 01:23:00;;;;;;;3.83;2.20;;;19.10;76.50;;;19.22;61.45;97016.59;5005152;28;19932;-42
2021/07/06 01:25:28;;;;;;;3.10;2.00;;;19.10;75.80;;;19.21;61.42;97028.44;5004955;28;20054;-42
2021/07/06 01:28:01;;;;;;;2.60;1.95;;;19.10;75.70;;;19.20;61.53;97022.22;5004541;28;20049;-42
2021/07/06 01:30:30;;;;;;;6.60;2.45;;;19.20;75.60;;;19.19;61.46;97020.59;5004886;28;20041;-42
2021/07/06 01:32:59;;;;;;;4.03;2.25;;;19.20;75.50;;;19.19;61.54;97019.75;5004683;28;20057;-42
2021/07/06 01:35:28;;;;;;;5.80;1.63;;;19.20;75.60;;;19.19;61.80;97026.00;5004847;28;20243;-42
2021/07/06 01:38:03;;;;;;;2.60;2.05;;;19.10;75.70;;;19.17;61.96;97024.56;5003892;28;20057;-43
2021/07/06 01:40:32;;;;;;;2.63;1.92;;;19.10;76.00;;;19.16;61.55;97020.22;5004145;28;20247;-42
2021/07/06 01:43:03;;;;;;;3.33;2.33;;;19.10;76.00;;;19.16;61.77;97017.53;5002773;28;20366;-42
2021/07/06 01:45:32;;;;;;;5.10;2.10;;;19.10;75.90;;;19.13;61.71;97007.19;5021968;28;20367;-42
2021/07/06 01:48:02;;;;;;;2.92;2.30;;;19.10;75.80;;;19.14;61.68;97008.84;5008661;28;20050;-42
2021/07/06 01:50:40;;;;;;;2.25;1.88;;;19.10;75.70;;;19.11;62.02;97009.28;5009607;28;20060;-42
2021/07/06 01:53:14;;;;;;;2.67;2.08;;;19.20;75.60;;;19.10;61.93;97002.28;5008052;28;20054;-42
2021/07/06 01:55:46;;;;;;;3.78;2.55;;;19.20;75.60;;;19.07;62.03;96998.16;5009492;28;20048;-42
2021/07/06 01:58:17;;;;;;;3.17;2.10;;;19.10;75.70;;;19.02;61.98;96990.75;5008787;28;20262;-43
2021/07/06 02:00:50;;;;;;;4.05;2.05;;;19.00;75.80;;;19.00;62.05;96987.47;5006335;28;20283;-42
2021/07/06 02:03:17;;;;;;;3.17;2.20;;;19.00;75.90;;;19.01;61.95;96983.69;5008417;28;20053;-42
2021/07/06 02:05:49;;;;;;;2.78;2.22;;;18.90;76.00;;;19.00;62.08;96975.84;5024641;28;20049;-42
2021/07/06 02:08:20;;;;;;;2.13;1.90;;;18.90;76.10;;;18.98;62.06;96981.50;5008702;28;20076;-42
2021/07/06 02:10:53;;;;;;;3.17;2.20;;;19.00;76.10;;;18.99;62.08;96982.31;5007611;28;20049;-42
2021/07/06 02:13:24;;;;;;;2.63;1.77;;;18.90;76.10;;;18.98;62.06;96976.09;5007918;28;20245;-42
2021/07/06 02:15:55;;;;;;;3.03;2.00;;;18.90;76.00;;;18.99;62.00;96979.59;5008825;28;20057;-42
2021/07/06 02:18:24;;;;;;;14.68;3.67;;;19.00;75.80;;;18.97;62.02;96973.63;5009218;28;20351;-42
2021/07/06 02:20:55;;;;;;;2.92;2.47;;;19.00;75.80;;;18.99;61.92;96968.81;5022650;28;20071;-42
2021/07/06 02:23:25;;;;;;;3.20;2.00;;;19.00;75.80;;;18.94;62.15;96968.69;5008878;28;20053;-42
2021/07/06 02:25:54;;;;;;;2.72;1.98;;;18.90;75.80;;;18.90;62.01;96968.31;5022548;28;20042;-42
2021/07/06 02:28:25;;;;;;;4.22;2.42;;;19.00;75.70;;;18.88;62.23;96956.94;5008010;28;20042;-42
2021/07/06 02:30:53;;;;;;;3.42;1.95;;;19.00;75.80;;;18.86;62.18;96954.50;5006612;28;20056;-42
2021/07/06 02:33:21;;;;;;;5.90;2.15;;;19.00;75.70;;;18.84;62.34;96967.38;5007447;28;20217;-42
2021/07/06 02:35:50;;;;;;;1.88;1.55;;;19.00;75.80;;;18.85;62.17;96969.00;5008142;28;20054;-42
2021/07/06 02:38:18;;;;;;;3.65;1.73;;;18.90;75.70;;;18.86;62.11;96967.13;5007451;28;20293;-43
2021/07/06 02:40:46;;;;;;;2.28;1.98;;;18.90;75.80;;;18.85;62.14;96957.41;5008067;28;20056;-43
2021/07/06 02:43:14;;;;;;;2.90;2.17;;;18.80;75.90;;;18.85;62.15;96963.63;5007168;28;20061;-43
2021/07/06 02:45:42;;;;;;;2.83;1.92;;;18.80;76.00;;;18.87;62.17;96961.50;5007557;28;20072;-42
2021/07/06 02:48:10;;;;;;;2.67;2.03;;;18.80;76.00;;;18.89;62.08;96963.97;5008725;28;20064;-43
2021/07/06 02:50:40;;;;;;;4.18;2.53;;;18.80;76.00;;;18.84;61.96;96953.91;5005878;28;20340;-42
2021/07/06 02:53:10;;;;;;;2.85;2.03;;;18.80;75.90;;;18.84;62.23;96955.75;5006288;28;20053;-42
2021/07/06 02:55:39;;;;;;;3.20;1.98;;;18.90;75.90;;;18.83;62.22;96964.91;5006977;28;20504;-42
2021/07/06 02:58:09;;;;;;;3.00;2.10;;;18.90;75.80;;;18.77;62.41;96966.63;5007059;28;20062;-42
2021/07/06 03:00:37;;;;;;;3.15;2.25;;;18.90;75.70;;;18.78;62.27;96968.25;5006572;28;20064;-42
2021/07/06 03:03:08;;;;;;;2.72;2.30;;;18.80;75.80;;;18.81;62.21;96965.13;5007595;28;20080;-43
2021/07/06 03:05:38;;;;;;;3.38;2.30;;;18.80;75.90;;;18.79;62.24;96958.31;5007503;28;20050;-42
2021/07/06 03:08:06;;;;;;;3.20;2.20;;;18.80;75.70;;;18.78;62.25;96965.56;5006709;28;20046;-42
2021/07/06 03:10:38;;;;;;;2.97;2.13;;;18.80;75.70;;;18.80;62.30;96959.97;5007980;28;20054;-42
2021/07/06 03:13:08;;;;;;;2.63;1.80;;;18.80;75.90;;;18.82;61.98;96944.38;5007364;28;20056;-42
2021/07/06 03:15:38;;;;;;;3.60;2.50;;;18.80;75.90;;;18.82;62.14;96945.19;5005601;28;20050;-42
2021/07/06 03:18:06;;;;;;;3.42;2.10;;;18.80;76.00;;;18.78;62.18;96946.69;5006787;28;20177;-42
2021/07/06 03:20:34;;;;;;;4.07;2.05;;;18.80;76.00;;;18.72;62.34;96946.78;5007708;28;20054;-42
2021/07/06 03:23:04;;;;;;;2.67;2.38;;;18.80;75.90;;;18.63;62.69;96946.28;5006418;28;20062;-42
2021/07/06 03:25:33;;;;;;;5.03;2.30;;;18.80;76.00;;;18.61;62.69;96943.00;5006868;28;20046;-42
2021/07/06 03:28:03;;;;;;;4.53;2.22;;;18.70;76.00;;;18.63;62.54;96932.81;5007396;28;20068;-42
2021/07/06 03:30:36;;;;;;;3.95;2.00;;;18.70;76.90;;;18.62;62.87;96934.69;5022315;28;20049;-42
2021/07/06 03:33:08;;;;;;;2.78;1.95;;;18.80;76.10;;;18.61;62.72;96938.44;5006498;28;20050;-42
2021/07/06 03:35:38;;;;;;;4.75;2.42;;;18.70;76.10;;;18.62;62.69;96934.69;5008400;28;20062;-42
2021/07/06 03:38:06;;;;;;;2.90;2.35;;;18.70;76.20;;;18.62;62.70;96931.16;5006274;28;20063;-42
2021/07/06 03:40:35;;;;;;;5.13;2.00;;;18.70;76.20;;;18.57;62.82;96917.56;5006486;28;20050;-43
2021/07/06 03:43:04;;;;;;;3.38;2.42;;;18.70;76.20;;;18.56;62.81;96911.34;5021667;28;20064;-42
2021/07/06 03:45:32;;;;;;;5.13;2.28;;;18.70;76.40;;;18.60;62.71;96917.09;5007879;28;20050;-43
2021/07/06 03:48:00;;;;;;;2.72;2.35;;;18.70;76.40;;;18.60;62.72;96901.75;5020560;28;20056;-42
2021/07/06 03:50:28;;;;;;;2.58;2.05;;;18.60;76.30;;;18.58;62.91;96905.72;5006163;28;20053;-42
2021/07/06 03:52:59;;;;;;;2.30;1.98;;;18.70;76.30;;;18.55;62.79;96890.00;5005718;28;20056;-42
2021/07/06 03:55:28;;;;;;;2.63;1.90;;;18.70;76.20;;;18.51;63.00;96895.03;5006470;28;20058;-42
2021/07/06 03:57:56;;;;;;;3.40;2.25;;;18.70;76.20;;;18.43;63.05;96892.66;5005586;28;20252;-43
2021/07/06 04:00:29;;;;;;;2.80;2.20;;;18.60;76.10;;;18.41;63.27;96908.25;5003795;28;20233;-43
2021/07/06 04:02:57;;;;;;;3.53;2.35;;;18.60;76.20;;;18.41;63.26;96910.94;5006445;28;20050;-42
2021/07/06 04:05:26;;;;;;;3.97;2.10;;;18.60;76.30;;;18.44;63.11;96915.88;5006966;28;20050;-42
2021/07/06 04:07:54;;;;;;;2.65;1.92;;;18.60;76.20;;;18.46;63.12;96913.78;5005015;28;20046;-42
2021/07/06 04:10:22;;;;;;;4.45;2.80;;;18.60;76.30;;;18.50;63.06;96901.50;5006883;28;20371;-42
2021/07/06 04:12:50;;;;;;;6.10;2.10;;;18.70;76.30;;;18.56;62.98;96913.22;5005066;28;20053;-42
2021/07/06 04:15:20;;;;;;;4.97;2.17;;;18.70;76.30;;;18.55;63.01;96914.25;5004972;28;20252;-42
2021/07/06 04:17:48;;;;;;;7.78;2.70;;;18.70;76.10;;;18.54;62.98;96907.25;5006041;28;20065;-42
2021/07/06 04:20:18;;;;;;;2.05;1.75;;;18.70;76.10;;;18.56;63.03;96914.03;5004130;28;20056;-40
2021/07/06 04:22:47;;;;;;;3.63;2.33;;;18.70;76.10;;;18.61;62.95;96921.44;5006793;28;20053;-43
2021/07/06 04:25:17;;;;;;;6.10;2.08;;;18.70;76.20;;;18.65;62.90;96903.75;5020657;28;20037;-43
2021/07/06 04:27:45;;;;;;;2.28;1.73;;;18.70;76.30;;;18.68;62.74;96898.72;5006268;28;20076;-42
2021/07/06 04:30:39;;;;;;;3.22;2.17;;;18.80;76.30;;;18.70;62.57;96893.09;5007422;28;20057;-43
2021/07/06 04:33:07;;;;;;;5.68;2.60;;;18.80;76.50;;;18.72;62.59;96882.09;4913580;29;20054;-36
2021/07/06 04:35:35;;;;;;;4.03;2.40;;;18.70;76.40;;;18.71;62.74;96883.97;4926914;29;20052;-36
2021/07/06 04:38:07;;;;;;;2.95;1.80;;;18.70;76.40;;;18.73;62.67;96895.34;4924427;29;20060;-36
2021/07/06 04:40:36;;;;;;;3.80;2.33;;;18.80;76.50;;;18.72;62.68;96890.19;4926459;29;20047;-36
2021/07/06 04:43:06;;;;;;;3.30;1.90;;;18.70;76.50;;;18.73;62.65;96894.50;4940680;29;20479;-37
2021/07/06 04:45:35;;;;;;;3.88;2.00;;;18.70;76.60;;;18.69;62.83;96894.97;4925125;29;20552;-37
2021/07/06 04:48:05;;;;;;;4.65;2.47;;;18.70;76.60;;;18.74;62.82;96888.88;4924843;29;20074;-36
2021/07/06 04:50:36;;;;;;;5.43;2.20;;;18.80;76.70;;;18.78;62.87;96887.34;4923239;29;20058;-36
2021/07/06 04:53:06;;;;;;;5.72;2.30;;;18.80;76.70;;;18.84;62.90;96882.94;4941156;29;20055;-37
2021/07/06 04:55:39;;;;;;;4.28;2.45;;;18.90;76.80;;;18.88;62.85;96884.97;4925155;29;20059;-36
2021/07/06 04:58:07;;;;;;;4.32;2.15;;;18.90;76.70;;;18.91;62.95;96885.56;4924758;29;20069;-36
2021/07/06 05:00:35;;;;;;;3.20;1.95;;;19.00;76.60;;;18.94;62.94;96896.69;4924967;29;20077;-37
2021/07/06 05:03:03;;;;;;;2.80;2.25;;;19.00;76.50;;;18.98;62.83;96899.72;4923613;29;20048;-37
2021/07/06 05:05:31;;;;;;;6.07;2.10;;;19.10;76.50;;;19.00;62.80;96897.63;4925283;29;20047;-37
2021/07/06 05:07:59;;;;;;;3.03;2.20;;;19.10;76.50;;;19.01;62.95;96897.38;4926353;28;20062;-37
2021/07/06 05:10:27;;;;;;;2.92;1.75;;;19.10;76.60;;;19.00;62.95;96893.06;4924212;29;20074;-36
2021/07/06 05:12:55;;;;;;;4.15;2.30;;;19.00;76.60;;;19.03;62.85;96899.84;4925595;28;20055;-36
2021/07/06 05:15:23;;;;;;;4.18;2.47;;;19.00;76.70;;;19.01;62.98;96901.97;4927864;28;20056;-37
2021/07/06 05:17:51;;;;;;;6.88;2.78;;;19.00;76.80;;;18.98;62.83;96913.22;4924700;29;20047;-37
2021/07/06 05:20:20;;;;;;;8.23;2.38;;;19.00;76.80;;;18.97;63.02;96907.00;4927287;29;20054;-37
2021/07/06 05:22:48;;;;;;;2.83;1.92;;;19.00;76.90;;;18.99;63.06;96902.19;4942311;28;20055;-36
2021/07/06 05:25:16;;;;;;;3.47;2.70;;;19.00;76.90;;;19.01;62.91;96881.22;4928827;28;20059;-36
2021/07/06 05:27:44;;;;;;;3.72;1.85;;;19.00;76.80;;;19.02;62.93;96876.66;4929410;28;20056;-36
2021/07/06 05:30:14;;;;;;;3.00;2.00;;;19.10;76.70;;;19.03;62.86;96872.88;4945083;28;20055;-36
2021/07/06 05:32:42;;;;;;;3.30;2.40;;;19.10;76.70;;;19.05;62.77;96876.16;4927328;28;20052;-36
2021/07/06 05:35:11;;;;;;;5.13;2.47;;;19.00;76.50;;;19.07;62.66;96877.56;4928202;29;20065;-36
2021/07/06 05:37:41;;;;;;;3.63;2.45;;;19.10;76.40;;;19.11;62.75;96874.41;4928267;29;20058;-37
2021/07/06 05:40:11;;;;;;;5.05;2.42;;;19.20;77.10;;;19.14;62.58;96890.16;4928720;29;20114;-37
2021/07/06 05:42:40;;;;;;;2.90;2.10;;;19.20;76.20;;;19.18;62.52;96902.09;4928231;29;20062;-37
2021/07/06 05:45:10;;;;;;;3.72;2.00;;;19.30;76.20;;;19.22;62.60;96903.28;4927643;29;20357;-37
2021/07/06 05:47:40;;;;;;;3.00;1.90;;;19.30;76.10;;;19.27;62.57;96908.81;4926810;29;20265;-37
2021/07/06 05:50:13;;;;;;;3.38;2.20;;;19.30;76.10;;;19.28;62.65;96903.16;4927243;29;20070;-37
2021/07/06 05:52:42;;;;;;;4.63;2.15;;;19.40;76.10;;;19.32;62.56;96903.50;4929228;28;20051;-36
2021/07/06 05:55:10;;;;;;;3.70;1.88;;;19.40;76.10;;;19.34;62.54;96912.19;4928182;29;20052;-37
2021/07/06 05:57:43;;;;;;;6.13;2.20;;;19.40;76.00;;;19.38;62.77;96899.03;4927850;29;20055;-37
2021/07/06 06:00:14;;;;;;;3.13;2.15;;;19.50;76.20;;;19.39;62.91;96901.50;4929676;28;20081;-37
2021/07/06 06:02:48;;;;;;;2.47;1.90;;;19.60;76.30;;;19.44;62.92;96903.50;4926011;29;20126;-37
2021/07/06 06:05:17;;;;;;;4.53;2.05;;;19.60;76.40;;;19.45;63.33;96902.44;4928302;29;20274;-37
2021/07/06 06:07:46;;;;;;;6.22;1.88;;;19.60;76.60;;;19.52;63.15;96907.72;4932922;28;20055;-37
2021/07/06 06:10:15;;;;;;;3.63;1.88;;;19.70;76.50;;;19.58;63.07;96906.75;4927017;29;20044;-37
2021/07/06 06:12:43;;;;;;;3.25;2.10;;;19.80;76.30;;;19.62;63.06;96897.97;4926549;28;20056;-37
2021/07/06 06:15:11;;;;;;;4.18;1.90;;;19.80;76.30;;;19.70;63.01;96904.03;4928693;29;20229;-37
2021/07/06 06:17:41;;;;;;;1.95;1.50;;;19.90;76.30;;;19.75;62.73;96904.19;4927761;28;20064;-37
2021/07/06 06:20:11;;;;;;;2.28;1.65;;;19.90;75.60;;;19.78;62.21;96899.16;4928621;28;20361;-37
2021/07/06 06:22:39;;;;;;;4.22;2.13;;;20.00;75.00;;;19.81;62.00;96908.63;4927806;29;20214;-37
2021/07/06 06:25:10;;;;;;;10.32;1.80;;;20.00;74.60;;;19.83;61.56;96915.47;4928839;28;20063;-37
2021/07/06 06:27:39;;;;;;;2.15;1.80;;;20.00;73.80;;;19.88;61.71;96920.13;4929258;28;20109;-37
2021/07/06 06:30:09;;;;;;;2.05;1.65;;;20.10;74.10;;;19.93;61.60;96911.31;4926218;29;20055;-37
2021/07/06 06:32:37;;;;;;;1.70;1.60;;;20.10;74.30;;;19.94;61.63;96900.28;4927181;28;20054;-37
2021/07/06 06:35:06;;;;;;;1.90;1.65;;;20.10;74.20;;;19.99;61.85;96886.06;4926146;29;20047;-37
2021/07/06 06:37:35;;;;;;;2.53;1.45;;;20.20;74.30;;;20.04;61.47;96881.56;4930181;28;20067;-37
2021/07/06 06:40:04;;;;;;;4.32;1.85;;;20.30;74.30;;;20.09;61.27;96893.56;4926804;29;20062;-37
2021/07/06 06:42:32;;;;;;;3.15;1.67;;;20.30;74.10;;;20.14;61.70;96909.84;4925965;29;20063;-37
2021/07/06 06:45:00;;;;;;;2.30;1.70;;;20.40;74.10;;;20.16;61.86;96921.22;4928725;29;20066;-37
2021/07/06 06:47:28;;;;;;;2.40;2.00;;;20.40;74.20;;;20.21;61.61;96924.84;4926842;29;20074;-37
2021/07/06 06:49:57;;;;;;;3.08;1.77;;;20.50;74.40;;;20.27;61.85;96926.59;4927618;29;20048;-37
2021/07/06 06:52:25;;;;;;;6.75;1.83;;;20.50;74.30;;;20.34;61.77;96922.97;4927073;29;20062;-37
2021/07/06 06:54:53;;;;;;;4.18;2.40;;;20.60;74.30;;;20.36;61.41;96921.63;4926922;28;20059;-37
2021/07/06 06:57:25;;;;;;;2.53;1.75;;;20.60;74.10;;;20.44;61.49;96934.75;4926204;29;20052;-37
2021/07/06 06:59:53;;;;;;;6.00;1.90;;;20.60;74.00;;;20.50;61.13;96935.69;4926632;29;20085;-37
2021/07/06 07:02:21;;;;;;;4.30;1.75;;;20.80;73.80;;;20.56;60.88;96929.31;4925990;29;20051;-36
2021/07/06 07:04:52;;;;;;;3.97;1.60;;;20.90;73.40;;;20.68;61.25;96933.88;4926864;29;20074;-37
2021/07/06 07:07:22;;;;;;;2.10;1.55;;;21.00;73.30;;;20.81;61.35;96928.16;4926624;29;20055;-36
2021/07/06 07:09:50;;;;;;;3.55;1.45;;;21.20;73.40;;;20.91;60.77;96922.09;4925483;29;20054;-36
2021/07/06 07:12:20;;;;;;;2.30;1.50;;;21.30;73.20;;;21.03;60.63;96906.59;4927718;29;20055;-36
2021/07/06 07:14:48;;;;;;;1.88;1.33;;;21.40;72.60;;;21.09;60.65;96894.78;4927524;29;20051;-36
2021/07/06 07:17:17;;;;;;;6.70;2.45;;;21.50;72.50;;;21.21;60.05;96905.53;4921259;28;20066;-36
2021/07/06 07:19:45;;;;;;;3.42;1.48;;;21.70;71.80;;;21.34;60.09;96910.59;4906285;29;20070;-37
2021/07/06 07:22:14;;;;;;;3.22;1.33;;;21.80;71.70;;;21.41;59.58;96905.84;4915885;28;20067;-37
2021/07/06 07:24:41;;;;;;;5.20;1.65;;;21.80;71.40;;;21.50;59.48;96913.56;4937473;28;20066;-37
2021/07/06 07:27:09;;;;;;;4.43;1.83;;;21.90;71.50;;;21.58;58.85;96911.25;4922979;29;20067;-37
2021/07/06 07:29:38;;;;;;;3.42;1.65;;;21.90;70.60;;;21.62;58.78;96920.53;4921315;28;20056;-38
2021/07/06 07:32:07;;;;;;;2.10;1.42;;;22.00;70.50;;;21.70;59.28;96926.59;4922078;29;20095;-37
2021/07/06 07:34:35;;;;;;;4.22;1.75;;;22.10;70.60;;;21.75;58.51;96910.38;4924694;29;20071;-37
2021/07/06 07:37:03;;;;;;;2.60;1.60;;;22.10;70.10;;;21.84;58.48;96906.19;4937913;29;20052;-37
2021/07/06 07:39:33;;;;;;;6.68;1.63;;;22.20;70.10;;;21.94;58.63;96900.06;4925202;29;20059;-37
2021/07/06 07:42:03;;;;;;;1.75;1.40;;;22.40;69.70;;;22.06;58.34;96889.09;4940962;29;20051;-37
2021/07/06 07:44:31;;;;;;;2.65;1.70;;;22.50;69.50;;;22.14;57.79;96880.50;4936548;29;20333;-37
2021/07/06 07:46:59;;;;;;;1.70;1.60;;;22.60;69.00;;;22.24;57.81;96905.03;4938727;29;20064;-37
2021/07/06 07:49:27;;;;;;;5.75;1.70;;;22.70;68.90;;;22.32;58.06;96901.91;4941872;29;20280;-37
2021/07/06 07:51:55;;;;;;;2.65;1.48;;;22.80;69.20;;;22.40;57.87;96896.00;4940573;29;20047;-37
2021/07/06 07:54:23;;;;;;;2.00;1.40;;;22.90;68.90;;;22.46;58.00;96893.38;4941721;29;20040;-37
2021/07/06 07:56:51;;;;;;;5.97;1.75;;;23.00;68.80;;;22.50;57.45;96906.16;4942001;29;20355;-37
2021/07/06 07:59:19;;;;;;;1.40;1.10;;;23.00;68.20;;;22.53;57.58;96900.22;4955330;28;20046;-37
2021/07/06 08:01:47;;;;;;;2.00;1.40;;;23.00;68.30;;;22.56;57.22;96910.53;4976925;28;20068;-37
2021/07/06 08:04:15;;;;;;;1.42;1.33;;;23.00;68.40;;;22.59;57.72;96904.63;4965351;28;20071;-37
2021/07/06 08:06:42;;;;;;;3.83;1.63;;;23.00;68.70;;;22.60;57.24;96913.56;4980155;28;20046;-36
2021/07/06 08:09:10;;;;;;;2.63;1.80;;;23.00;68.50;;;22.58;57.11;96910.28;4953241;28;20061;-37
2021/07/06 08:11:38;;;;;;;6.00;1.50;;;22.90;68.00;;;22.58;56.76;96902.16;4980060;28;20058;-37
2021/07/06 08:14:07;;;;;;;3.72;1.73;;;22.90;67.70;;;22.58;56.66;96905.69;4966271;28;20045;-38
2021/07/06 08:16:35;;;;;;;4.40;1.65;;;22.90;67.90;;;22.65;56.43;96901.97;4923293;28;20345;-38
2021/07/06 08:19:03;;;;;;;3.70;1.30;;;23.00;67.80;;;22.73;56.58;96894.16;4938014;28;20048;-38
2021/07/06 08:21:31;;;;;;;1.40;1.30;;;23.10;67.50;;;22.79;56.75;96908.59;4952115;28;20060;-38
2021/07/06 08:24:01;;;;;;;3.63;1.60;;;23.20;67.40;;;22.86;56.71;96946.41;4922790;28;20054;-38
2021/07/06 08:26:31;;;;;;;1.33;1.20;;;23.30;67.30;;;22.95;56.43;96952.97;4928169;29;20054;-37
2021/07/06 08:28:59;;;;;;;4.47;1.42;;;23.40;67.00;;;23.04;55.93;96965.03;4921111;29;20056;-38
2021/07/06 08:31:27;;;;;;;2.45;1.42;;;23.60;66.50;;;23.07;55.92;96983.53;4921557;29;20048;-38
2021/07/06 08:33:55;;;;;;;2.95;1.60;;;23.60;66.40;;;23.10;56.00;96987.63;4922149;29;20059;-38
2021/07/06 08:36:24;;;;;;;1.60;1.45;;;23.60;66.40;;;23.09;55.46;97000.38;4919699;29;20056;-36
2021/07/06 08:38:52;;;;;;;2.67;1.60;;;23.50;65.20;;;23.11;55.38;97005.53;4921853;29;20060;-36
2021/07/06 08:41:20;;;;;;;1.75;1.40;;;23.50;65.80;;;23.11;55.41;97014.53;4921449;29;20052;-35
2021/07/06 08:43:49;;;;;;;6.60;1.90;;;23.50;66.00;;;23.11;55.13;97016.38;4922212;29;20064;-35
2021/07/06 08:46:20;;;;;;;3.72;1.55;;;23.50;65.80;;;23.11;55.41;97017.22;4921745;29;20062;-38
2021/07/06 08:48:50;;;;;;;3.33;1.65;;;23.40;66.00;;;23.11;55.10;97038.94;4921837;29;20061;-38
2021/07/06 08:51:22;;;;;;;3.03;1.73;;;23.50;65.50;;;23.06;55.14;97044.31;4921176;29;20079;-38
2021/07/06 08:53:51;;;;;;;3.47;1.50;;;23.40;65.80;;;23.05;55.28;97056.25;4936340;29;20380;-38
2021/07/06 08:56:18;;;;;;;2.08;1.55;;;23.40;65.40;;;22.93;54.77;97088.91;4921421;29;20043;-38
2021/07/06 08:58:46;;;;;;;3.72;1.95;;;23.40;65.00;;;22.75;56.51;97108.25;4921666;29;20048;-38
2021/07/06 09:01:15;;;;;;;2.90;1.80;;;23.20;67.30;;;22.49;57.91;97132.34;4921044;29;20072;-36
2021/07/06 09:04:05;;;;;;;2.38;2.00;;;22.80;69.50;;;22.12;58.19;97149.13;4920842;29;20048;-36
2021/07/06 09:06:56;;;;;;;4.00;1.98;;;22.30;71.10;;;21.88;59.57;97180.16;4920088;29;20289;-36
2021/07/06 09:09:28;;;;;;;3.88;2.28;;;22.00;72.50;;;21.48;60.76;97189.19;4921681;29;20341;-36
2021/07/06 09:11:57;;;;;;;6.03;2.20;;;21.60;74.10;;;21.49;60.51;97171.88;4921387;29;20052;-37
2021/07/06 09:14:27;;;;;;;2.70;2.30;;;21.60;74.50;;;21.45;61.31;97201.34;4920802;29;20062;-37
2021/07/06 09:17:16;;;;;;;7.03;2.67;;;21.60;74.60;;;21.21;61.55;97198.69;4919121;29;20058;-37
2021/07/06 09:19:49;;;;;;;3.08;2.63;;;21.50;75.20;;;21.13;62.25;97219.88;4920483;29;20062;-38
2021/07/06 09:22:21;;;;;;;5.75;1.80;;;21.30;76.00;;;21.00;62.62;97212.84;4922639;28;20067;-37
2021/07/06 09:25:09;;;;;;;1.98;1.42;;;21.20;76.00;;;20.72;63.13;97200.88;4922579;28;20068;-37
2021/07/06 09:27:39;;;;;;;2.58;1.30;;;20.90;77.00;;;20.67;64.55;97225.13;4939672;28;20062;-37
2021/07/06 09:30:18;;;;;;;3.95;1.67;;;20.80;80.30;;;20.60;66.14;97238.75;4921508;29;20242;-37
2021/07/06 09:32:55;;;;;;;5.78;2.30;;;20.40;84.40;;;20.49;66.96;97241.44;4921419;29;20050;-37
2021/07/06 09:35:30;;;;;;;4.07;1.95;;;20.10;88.00;;;19.95;69.54;97223.38;4921119;29;20055;-37
2021/07/06 09:37:59;;;;;;;1.80;1.60;;;19.40;93.00;;;19.60;70.07;97223.22;4919982;29;20119;-36
2021/07/06 09:40:35;;;;;;;2.92;1.65;;;18.90;97.20;;;19.42;69.75;97240.28;4920731;29;20074;-36
2021/07/06 09:43:30;;;;;;;2.47;1.40;;;18.70;96.80;;;19.01;73.29;97239.97;4919091;29;20058;-37
2021/07/06 09:46:11;;;;;;;3.40;1.50;;;18.50;99.80;;;18.94;72.52;97232.97;4918291;29;20227;-36
2021/07/06 09:48:43;;;;;;;6.13;2.47;;;18.30;99.70;;;18.95;71.12;97215.78;4920387;29;20044;-35
2021/07/06 09:51:25;;;;;;;1.92;1.73;;;18.40;98.60;;;18.84;73.40;97215.47;4936922;28;20365;-35
2021/07/06 09:53:55;;;;;;;2.40;1.70;;;18.40;99.90;;;18.85;72.58;97205.50;4921914;28;20070;-36
2021/07/06 09:56:27;;;;;;;2.03;1.50;;;18.40;98.60;;;18.86;72.68;97194.50;4920404;29;20064;-36
2021/07/06 09:59:03;;;;;;;2.65;1.80;;;18.50;99.10;;;18.94;73.77;97192.53;4920652;29;20052;-36
2021/07/06 10:01:31;;;;;;;1.33;1.20;;;18.60;99.60;;;18.91;72.98;97196.50;4938494;28;20349;-36
2021/07/06 10:04:00;;;;;;;2.00;1.40;;;18.60;97.40;;;19.06;72.82;97190.75;4937919;29;20052;-36
2021/07/06 10:06:29;;;;;;;2.10;1.70;;;18.80;98.70;;;19.06;73.07;97175.38;4953647;28;20066;-37
2021/07/06 10:08:57;;;;;;;2.00;1.80;;;18.80;97.90;;;19.10;72.95;97174.94;4944341;28;20060;-37
2021/07/06 10:11:26;;;;;;;3.88;2.30;;;18.90;96.60;;;19.12;73.39;97173.66;4930266;28;20230;-37
2021/07/06 10:13:55;;;;;;;1.73;1.42;;;19.00;96.70;;;19.14;73.11;97170.72;4923581;29;20048;-36
2021/07/06 10:16:24;;;;;;;2.25;1.30;;;18.90;95.90;;;19.25;73.09;97168.06;4923639;29;20052;-36
2021/07/06 10:18:54;;;;;;;2.08;1.52;;;19.10;95.80;;;19.30;72.83;97167.38;4924160;29;20052;-36
2021/07/06 10:21:22;;;;;;;2.67;1.40;;;19.20;95.70;;;19.37;72.46;97175.41;4924153;29;20056;-37
2021/07/06 10:23:51;;;;;;;1.58;1.27;;;19.20;95.20;;;19.40;72.83;97172.22;4923536;28;20052;-37
2021/07/06 10:26:28;;;;;;;1.90;1.45;;;19.30;94.70;;;19.39;72.84;97170.59;4927425;28;20059;-37
2021/07/06 10:28:56;;;;;;;2.72;1.50;;;19.30;94.40;;;19.41;72.40;97157.69;4935252;29;20237;-37
2021/07/06 10:31:25;;;;;;;5.97;2.10;;;19.30;94.00;;;19.52;72.70;97158.75;4941941;29;20058;-38